Time,TemperatureF,DewpointF,PressureIn,WindDirection,WindDirectionDegrees,WindSpeedMPH,WindSpeedGustMPH,Humidity,HourlyPrecipIn,Conditions,Clouds,dailyrainin,SoftwareType,DateUTC
2013-05-07 00:00:00,54.3,47.6,30.03,NNE,32,0.0,0.0,78,0.00,,,0.00,VWS V14.01,2013-05-07 05:00:00,
2013-05-07 00:05:00,53.9,47.2,30.02,NNE,32,0.0,0.0,78,0.00,,,0.00,VWS V14.01,2013-05-07 05:05:00,
2013-05-07 00:10:00,53.4,46.7,30.03,NNE,32,0.0,0.0,78,0.00,,,0.00,VWS V14.01,2013-05-07 05:10:00,
2013-05-07 00:15:00,52.9,46.9,30.03,NNE,32,0.0,0.0,80,0.00,,,0.00,VWS V14.01,2013-05-07 05:15:00,
2013-05-07 00:20:00,52.4,46.4,30.03,NNE,32,0.0,0.0,80,0.00,,,0.00,VWS V14.01,2013-05-07 05:20:00,
2013-05-07 00:25:00,52.4,47.1,30.03,NNE,32,0.0,0.0,82,0.00,,,0.00,VWS V14.01,2013-05-07 05:25:00,
2013-05-07 00:30:00,52.2,46.9,30.03,NNE,32,0.0,0.0,82,0.00,,,0.00,VWS V14.01,2013-05-07 05:30:00,
2013-05-07 00:35:00,51.8,46.8,30.03,NNE,32,0.0,0.0,83,0.00,,,0.00,VWS V14.01,2013-05-07 05:35:00,
2013-05-07 00:40:00,52.1,47.4,30.03,NNE,32,0.0,0.0,84,0.00,,,0.00,VWS V14.01,2013-05-07 05:40:00,
2013-05-07 00:45:00,52.2,47.2,30.03,NNE,32,0.0,0.0,83,0.00,,,0.00,VWS V14.01,2013-05-07 05:45:00,
2013-05-07 00:50:00,51.9,46.6,30.03,NNE,32,0.0,0.0,82,0.00,,,0.00,VWS V14.01,2013-05-07 05:50:00,
2013-05-07 00:55:00,51.5,46.5,30.03,NNE,32,0.0,0.0,83,0.00,,,0.00,VWS V14.01,2013-05-07 05:55:00,
2013-05-07 01:00:00,51.0,46.3,30.03,NNE,32,0.0,0.0,84,0.00,,,0.00,VWS V14.01,2013-05-07 06:00:00,
2013-05-07 01:05:00,51.3,46.6,30.03,NNE,32,0.0,0.0,84,0.00,,,0.00,VWS V14.01,2013-05-07 06:05:00,
2013-05-07 01:10:00,51.4,46.7,30.04,NNE,32,0.0,0.0,84,0.00,,,0.00,VWS V14.01,2013-05-07 06:10:00,
2013-05-07 01:15:00,51.3,46.6,30.04,NNE,32,0.0,0.0,84,0.00,,,0.00,VWS V14.01,2013-05-07 06:15:00,
2013-05-07 01:20:00,50.9,46.2,30.03,NNE,32,0.0,0.0,84,0.00,,,0.00,VWS V14.01,2013-05-07 06:20:00,
2013-05-07 01:25:00,50.5,45.8,30.03,NNE,32,0.0,0.0,84,0.00,,,0.00,VWS V14.01,2013-05-07 06:25:00,
2013-05-07 01:30:00,50.2,45.9,30.03,NNE,33,0.0,0.0,85,0.00,,,0.00,VWS V14.01,2013-05-07 06:30:00,
2013-05-07 01:35:00,49.9,45.6,30.03,NNE,32,0.0,0.0,85,0.00,,,0.00,VWS V14.01,2013-05-07 06:35:00,
2013-05-07 01:40:00,49.7,45.7,30.03,NNE,33,0.0,0.0,86,0.00,,,0.00,VWS V14.01,2013-05-07 06:40:00,
2013-05-07 01:45:00,50.0,46.3,30.03,NNE,32,0.0,0.0,87,0.00,,,0.00,VWS V14.01,2013-05-07 06:45:00,
2013-05-07 01:50:00,50.3,46.6,30.03,NNE,33,0.0,0.0,87,0.00,,,0.00,VWS V14.01,2013-05-07 06:50:00,
2013-05-07 01:55:00,50.2,46.2,30.03,NNE,32,0.0,0.0,86,0.00,,,0.00,VWS V14.01,2013-05-07 06:55:00,
2013-05-07 02:00:00,49.8,45.5,30.03,NNE,32,0.0,0.0,85,0.00,,,0.00,VWS V14.01,2013-05-07 07:00:00,
2013-05-07 02:05:00,49.5,45.5,30.03,NNE,32,0.0,0.0,86,0.00,,,0.00,VWS V14.01,2013-05-07 07:05:00,
2013-05-07 02:10:00,49.6,45.9,30.02,NNE,32,0.0,0.0,87,0.00,,,0.00,VWS V14.01,2013-05-07 07:10:00,
2013-05-07 02:15:00,49.7,45.7,30.02,NNE,32,0.0,0.0,86,0.00,,,0.00,VWS V14.01,2013-05-07 07:15:00,
2013-05-07 02:20:00,49.5,45.5,30.02,NNE,32,0.0,0.0,86,0.00,,,0.00,VWS V14.01,2013-05-07 07:20:00,
2013-05-07 02:25:00,49.2,45.2,30.02,NNE,32,0.0,0.0,86,0.00,,,0.00,VWS V14.01,2013-05-07 07:25:00,
2013-05-07 02:30:00,49.0,45.3,30.02,NNE,32,0.0,0.0,87,0.00,,,0.00,VWS V14.01,2013-05-07 07:30:00,
2013-05-07 02:35:00,48.7,45.0,30.02,NNE,32,0.0,0.0,87,0.00,,,0.00,VWS V14.01,2013-05-07 07:35:00,
2013-05-07 02:40:00,48.5,44.8,30.02,NNE,32,0.0,0.0,87,0.00,,,0.00,VWS V14.01,2013-05-07 07:40:00,
2013-05-07 02:45:00,48.2,44.5,30.02,NNE,33,0.0,0.0,87,0.00,,,0.00,VWS V14.01,2013-05-07 07:45:00,
2013-05-07 02:50:00,48.0,44.6,30.02,NNE,33,0.0,0.0,88,0.00,,,0.00,VWS V14.01,2013-05-07 07:50:00,
2013-05-07 02:55:00,48.1,44.7,30.02,NNE,33,0.0,0.0,88,0.00,,,0.00,VWS V14.01,2013-05-07 07:55:00,
2013-05-07 03:00:00,48.1,44.7,30.01,NNE,32,0.0,0.0,88,0.00,,,0.00,VWS V14.01,2013-05-07 08:00:00,
2013-05-07 03:05:00,47.7,44.3,30.01,NNE,32,0.0,0.0,88,0.00,,,0.00,VWS V14.01,2013-05-07 08:05:00,
2013-05-07 03:10:00,47.6,44.2,30.01,NNE,33,0.0,0.0,88,0.00,,,0.00,VWS V14.01,2013-05-07 08:10:00,
2013-05-07 03:15:00,47.3,43.9,30.01,NNE,32,0.0,0.0,88,0.00,,,0.00,VWS V14.01,2013-05-07 08:15:00,
2013-05-07 03:20:00,47.3,44.2,30.01,NNE,33,0.0,0.0,89,0.00,,,0.00,VWS V14.01,2013-05-07 08:20:00,
2013-05-07 03:25:00,47.4,44.3,30.01,NNE,32,0.0,0.0,89,0.00,,,0.00,VWS V14.01,2013-05-07 08:25:00,
2013-05-07 03:30:00,47.4,44.3,30.01,NNE,33,0.0,0.0,89,0.00,,,0.00,VWS V14.01,2013-05-07 08:30:00,
2013-05-07 03:35:00,47.2,44.1,30.01,NNE,32,0.0,0.0,89,0.00,,,0.00,VWS V14.01,2013-05-07 08:35:00,
2013-05-07 03:40:00,46.9,43.8,30.01,NNE,33,0.0,0.0,89,0.00,,,0.00,VWS V14.01,2013-05-07 08:40:00,
2013-05-07 03:45:00,46.8,43.7,30.01,NNE,33,0.0,0.0,89,0.00,,,0.00,VWS V14.01,2013-05-07 08:45:00,
2013-05-07 03:50:00,47.1,44.3,30.01,NNE,32,0.0,0.0,90,0.00,,,0.00,VWS V14.01,2013-05-07 08:50:00,
2013-05-07 03:55:00,47.0,43.9,30.01,NNE,33,0.0,0.0,89,0.00,,,0.00,VWS V14.01,2013-05-07 08:55:00,
2013-05-07 04:00:00,46.7,43.9,30.01,NNE,32,0.0,0.0,90,0.00,,,0.00,VWS V14.01,2013-05-07 09:00:00,
2013-05-07 04:05:00,46.4,43.3,30.01,NNE,32,0.0,0.0,89,0.00,,,0.00,VWS V14.01,2013-05-07 09:05:00,
2013-05-07 04:10:00,46.0,43.2,30.01,NNE,33,0.0,0.0,90,0.00,,,0.00,VWS V14.01,2013-05-07 09:10:00,
2013-05-07 04:15:00,46.5,44.0,30.01,NNE,32,0.0,0.0,91,0.00,,,0.00,VWS V14.01,2013-05-07 09:15:00,
2013-05-07 04:20:00,47.0,44.5,30.01,NNE,32,0.0,0.0,91,0.00,,,0.00,VWS V14.01,2013-05-07 09:20:00,
2013-05-07 04:25:00,47.1,44.3,30.01,NNE,32,0.0,0.0,90,0.00,,,0.00,VWS V14.01,2013-05-07 09:25:00,
2013-05-07 04:30:00,46.8,44.0,30.01,NNE,33,0.0,0.0,90,0.00,,,0.00,VWS V14.01,2013-05-07 09:30:00,
2013-05-07 04:35:00,46.3,43.5,30.01,NNE,32,0.0,0.0,90,0.00,,,0.00,VWS V14.01,2013-05-07 09:35:00,
2013-05-07 04:40:00,46.0,43.2,30.01,NNE,32,0.0,0.0,90,0.00,,,0.00,VWS V14.01,2013-05-07 09:40:00,
2013-05-07 04:45:00,45.9,43.1,30.01,NNE,32,0.0,0.0,90,0.00,,,0.00,VWS V14.01,2013-05-07 09:45:00,
2013-05-07 04:50:00,46.0,43.2,30.01,NNE,33,0.0,0.0,90,0.00,,,0.00,VWS V14.01,2013-05-07 09:50:00,
2013-05-07 04:55:00,46.2,43.7,30.02,NNE,32,0.0,0.0,91,0.00,,,0.00,VWS V14.01,2013-05-07 09:55:00,
2013-05-07 05:00:00,46.3,43.8,30.02,NNE,32,0.0,0.0,91,0.00,,,0.00,VWS V14.01,2013-05-07 10:00:00,
2013-05-07 05:05:00,46.2,43.7,30.02,NNE,33,0.0,0.0,91,0.00,,,0.00,VWS V14.01,2013-05-07 10:05:00,
2013-05-07 05:10:00,46.5,44.0,30.02,NNE,32,0.0,0.0,91,0.00,,,0.00,VWS V14.01,2013-05-07 10:10:00,
2013-05-07 05:15:00,46.8,44.3,30.02,NNE,33,0.0,0.0,91,0.00,,,0.00,VWS V14.01,2013-05-07 10:15:00,
2013-05-07 05:20:00,46.9,44.4,30.03,NNE,33,0.0,1.0,91,0.00,,,0.00,VWS V14.01,2013-05-07 10:20:00,
2013-05-07 05:25:00,46.8,44.3,30.03,NNE,33,0.0,0.0,91,0.00,,,0.00,VWS V14.01,2013-05-07 10:25:00,
2013-05-07 05:30:00,46.8,44.3,30.03,NNE,32,0.0,0.0,91,0.00,,,0.00,VWS V14.01,2013-05-07 10:30:00,
2013-05-07 05:35:00,46.8,44.3,30.03,NNE,32,0.0,0.0,91,0.00,,,0.00,VWS V14.01,2013-05-07 10:35:00,
2013-05-07 05:40:00,46.1,43.3,30.03,NE,45,1.0,1.0,90,0.00,,,0.00,VWS V14.01,2013-05-07 10:40:00,
2013-05-07 05:45:00,46.4,43.9,30.03,ESE,111,2.0,2.0,91,0.00,,,0.00,VWS V14.01,2013-05-07 10:45:00,
2013-05-07 05:50:00,46.9,44.4,30.03,SE,127,0.0,3.0,91,0.00,,,0.00,VWS V14.01,2013-05-07 10:50:00,
2013-05-07 05:55:00,47.2,44.7,30.03,NE,54,2.0,2.0,91,0.00,,,0.00,VWS V14.01,2013-05-07 10:55:00,
2013-05-07 06:00:00,47.6,44.8,30.04,NNE,16,0.0,3.0,90,0.00,,,0.00,VWS V14.01,2013-05-07 11:00:00,
2013-05-07 06:05:00,47.5,44.7,30.04,NNE,18,0.0,1.0,90,0.00,,,0.00,VWS V14.01,2013-05-07 11:05:00,
2013-05-07 06:10:00,47.3,44.2,30.04,NNE,17,0.0,0.0,89,0.00,,,0.00,VWS V14.01,2013-05-07 11:10:00,
2013-05-07 06:15:00,47.0,43.9,30.04,NNE,16,0.0,0.0,89,0.00,,,0.00,VWS V14.01,2013-05-07 11:15:00,
2013-05-07 06:20:00,46.5,43.4,30.04,NNE,16,0.0,0.0,89,0.00,,,0.00,VWS V14.01,2013-05-07 11:20:00,
2013-05-07 06:25:00,46.0,43.0,30.04,NNE,16,0.0,0.0,89,0.00,,,0.00,VWS V14.01,2013-05-07 11:25:00,
2013-05-07 06:30:00,45.5,42.5,30.04,NNE,17,0.0,0.0,89,0.00,,,0.00,VWS V14.01,2013-05-07 11:30:00,
2013-05-07 06:35:00,45.5,42.7,30.04,NNE,18,0.0,0.0,90,0.00,,,0.00,VWS V14.01,2013-05-07 11:35:00,
2013-05-07 06:40:00,45.4,42.6,30.05,NNE,18,0.0,1.0,90,0.00,,,0.00,VWS V14.01,2013-05-07 11:40:00,
2013-05-07 06:44:00,45.6,42.8,30.04,NNE,18,0.0,0.0,90,0.00,,,0.00,VWS V14.01,2013-05-07 11:44:00,
2013-05-07 06:49:00,45.4,42.6,30.05,NNE,18,0.0,0.0,90,0.00,,,0.00,VWS V14.01,2013-05-07 11:49:00,
2013-05-07 06:54:00,45.3,42.5,30.05,NNE,18,0.0,0.0,90,0.00,,,0.00,VWS V14.01,2013-05-07 11:54:00,
2013-05-07 06:59:00,45.5,42.7,30.05,NNE,18,0.0,0.0,90,0.00,,,0.00,VWS V14.01,2013-05-07 11:59:00,
2013-05-07 07:04:00,45.8,43.3,30.05,NNE,18,0.0,0.0,91,0.00,,,0.00,VWS V14.01,2013-05-07 12:04:00,
2013-05-07 07:09:00,46.3,43.8,30.05,NNE,18,0.0,0.0,91,0.00,,,0.00,VWS V14.01,2013-05-07 12:09:00,
2013-05-07 07:14:00,47.1,44.6,30.05,NNE,18,0.0,0.0,91,0.00,,,0.00,VWS V14.01,2013-05-07 12:14:00,
2013-05-07 07:19:00,47.7,44.9,30.05,NNE,18,0.0,1.0,90,0.00,,,0.00,VWS V14.01,2013-05-07 12:19:00,
2013-05-07 07:24:00,48.2,45.4,30.05,NNE,18,0.0,1.0,90,0.00,,,0.00,VWS V14.01,2013-05-07 12:24:00,
2013-05-07 07:29:00,49.3,46.5,30.05,NNE,18,0.0,0.0,90,0.00,,,0.00,VWS V14.01,2013-05-07 12:29:00,
2013-05-07 07:34:00,50.7,47.9,30.06,NNE,18,0.0,0.0,90,0.00,,,0.00,VWS V14.01,2013-05-07 12:34:00,
2013-05-07 07:39:00,51.7,48.3,30.06,NNE,18,0.0,0.0,88,0.00,,,0.00,VWS V14.01,2013-05-07 12:39:00,
2013-05-07 07:44:00,52.4,48.7,30.06,NNE,18,0.0,0.0,87,0.00,,,0.00,VWS V14.01,2013-05-07 12:44:00,
2013-05-07 07:49:00,53.8,50.0,30.06,NNE,18,0.0,0.0,87,0.00,,,0.00,VWS V14.01,2013-05-07 12:49:00,
2013-05-07 07:54:00,55.3,50.9,30.06,NNE,18,0.0,0.0,85,0.00,,,0.00,VWS V14.01,2013-05-07 12:54:00,
2013-05-07 07:59:00,56.8,51.0,30.06,NNE,18,0.0,0.0,81,0.00,,,0.00,VWS V14.01,2013-05-07 12:59:00,
2013-05-07 08:04:00,57.8,51.0,30.06,NNE,18,0.0,0.0,78,0.00,,,0.00,VWS V14.01,2013-05-07 13:04:00,
2013-05-07 08:09:00,58.1,50.6,30.06,NNE,18,0.0,0.0,76,0.00,,,0.00,VWS V14.01,2013-05-07 13:09:00,
2013-05-07 08:14:00,57.8,49.9,30.06,NNE,18,0.0,0.0,75,0.00,,,0.00,VWS V14.01,2013-05-07 13:14:00,
2013-05-07 08:19:00,58.0,50.1,30.07,NNE,18,0.0,0.0,75,0.00,,,0.00,VWS V14.01,2013-05-07 13:19:00,
2013-05-07 08:24:00,58.2,50.3,30.06,NNE,21,0.0,0.0,75,0.00,,,0.00,VWS V14.01,2013-05-07 13:24:00,
2013-05-07 08:29:00,59.2,51.7,30.06,NNE,28,0.0,0.0,76,0.00,,,0.00,VWS V14.01,2013-05-07 13:29:00,
2013-05-07 08:34:00,59.6,51.0,30.06,East,95,0.0,0.0,73,0.00,,,0.00,VWS V14.01,2013-05-07 13:34:00,
2013-05-07 08:39:00,59.8,50.4,30.07,ESE,109,3.0,3.0,71,0.00,,,0.00,VWS V14.01,2013-05-07 13:39:00,
2013-05-07 08:44:00,60.1,50.7,30.07,SE,140,2.0,3.0,71,0.00,,,0.00,VWS V14.01,2013-05-07 13:44:00,
2013-05-07 08:49:00,60.6,50.8,30.07,SE,135,1.0,3.0,70,0.00,,,0.00,VWS V14.01,2013-05-07 13:49:00,
2013-05-07 08:54:00,61.4,51.2,30.07,East,91,0.0,2.0,69,0.00,,,0.00,VWS V14.01,2013-05-07 13:54:00,
2013-05-07 08:59:00,62.7,52.4,30.07,East,85,0.0,1.0,69,0.00,,,0.00,VWS V14.01,2013-05-07 13:59:00,
2013-05-07 09:04:00,64.0,52.4,30.07,East,80,0.0,2.0,66,0.00,,,0.00,VWS V14.01,2013-05-07 14:04:00,
2013-05-07 09:09:00,64.8,51.9,30.07,ENE,71,1.0,3.0,63,0.00,,,0.00,VWS V14.01,2013-05-07 14:09:00,
2013-05-07 09:14:00,65.2,52.3,30.07,East,80,1.0,2.0,63,0.00,,,0.00,VWS V14.01,2013-05-07 14:14:00,
2013-05-07 09:19:00,65.3,52.4,30.07,ESE,109,4.0,4.0,63,0.00,,,0.00,VWS V14.01,2013-05-07 14:19:00,
2013-05-07 09:24:00,65.5,52.2,30.07,SSE,151,5.0,5.0,62,0.00,,,0.00,VWS V14.01,2013-05-07 14:24:00,
2013-05-07 09:29:00,65.7,51.9,30.07,SSW,193,3.0,5.0,61,0.00,,,0.00,VWS V14.01,2013-05-07 14:29:00,
2013-05-07 09:34:00,66.3,52.5,30.07,ESE,115,3.0,4.0,61,0.00,,,0.00,VWS V14.01,2013-05-07 14:34:00,
2013-05-07 09:39:00,66.5,52.7,30.07,SSE,157,3.0,6.0,61,0.00,,,0.00,VWS V14.01,2013-05-07 14:39:00,
2013-05-07 09:44:00,66.7,52.4,30.07,SE,137,1.0,5.0,60,0.00,,,0.00,VWS V14.01,2013-05-07 14:44:00,
2013-05-07 09:49:00,67.6,53.7,30.07,South,172,4.0,6.0,61,0.00,,,0.00,VWS V14.01,2013-05-07 14:49:00,
2013-05-07 09:54:00,68.4,53.5,30.07,ESE,108,3.0,4.0,59,0.00,,,0.00,VWS V14.01,2013-05-07 14:54:00,
2013-05-07 09:59:00,68.8,53.0,30.07,SSE,158,2.0,7.0,57,0.00,,,0.00,VWS V14.01,2013-05-07 14:59:00,
2013-05-07 10:04:00,69.2,53.3,30.07,ESE,114,7.0,7.0,57,0.00,,,0.00,VWS V14.01,2013-05-07 15:04:00,
2013-05-07 10:09:00,69.9,53.5,30.07,ESE,104,5.0,7.0,56,0.00,,,0.00,VWS V14.01,2013-05-07 15:09:00,
2013-05-07 10:14:00,69.9,53.5,30.06,SSE,167,3.0,8.0,56,0.00,,,0.00,VWS V14.01,2013-05-07 15:14:00,
2013-05-07 10:19:00,70.7,53.8,30.06,East,94,2.0,6.0,55,0.00,,,0.00,VWS V14.01,2013-05-07 15:19:00,
2013-05-07 10:24:00,71.6,54.1,30.06,ESE,122,8.0,12.0,54,0.00,,,0.00,VWS V14.01,2013-05-07 15:24:00,
2013-05-07 10:29:00,71.6,54.1,30.06,SE,126,8.0,11.0,54,0.00,,,0.00,VWS V14.01,2013-05-07 15:29:00,
2013-05-07 10:34:00,71.4,53.9,30.06,SE,136,4.0,11.0,54,0.00,,,0.00,VWS V14.01,2013-05-07 15:34:00,
2013-05-07 10:39:00,72.0,54.5,30.06,SE,140,9.0,12.0,54,0.00,,,0.00,VWS V14.01,2013-05-07 15:39:00,
2013-05-07 10:44:00,72.0,54.0,30.06,SSE,161,4.0,11.0,53,0.00,,,0.00,VWS V14.01,2013-05-07 15:44:00,
2013-05-07 10:49:00,72.2,52.5,30.06,SE,136,6.0,11.0,50,0.00,,,0.00,VWS V14.01,2013-05-07 15:49:00,
2013-05-07 10:54:00,72.6,54.5,30.06,ESE,111,3.0,7.0,53,0.00,,,0.00,VWS V14.01,2013-05-07 15:54:00,
2013-05-07 10:59:00,72.7,53.5,30.06,SE,130,8.0,12.0,51,0.00,,,0.00,VWS V14.01,2013-05-07 15:59:00,
2013-05-07 11:04:00,73.0,52.7,30.06,SE,129,10.0,14.0,49,0.00,,,0.00,VWS V14.01,2013-05-07 16:04:00,
2013-05-07 11:09:00,73.1,53.4,30.06,SE,136,8.0,15.0,50,0.00,,,0.00,VWS V14.01,2013-05-07 16:09:00,
2013-05-07 11:14:00,73.0,53.3,30.06,ESE,116,12.0,12.0,50,0.00,,,0.00,VWS V14.01,2013-05-07 16:14:00,
2013-05-07 11:19:00,73.3,53.0,30.06,East,99,5.0,12.0,49,0.00,,,0.00,VWS V14.01,2013-05-07 16:19:00,
2013-05-07 11:24:00,73.6,52.2,30.06,South,174,2.0,11.0,47,0.00,,,0.00,VWS V14.01,2013-05-07 16:24:00,
2013-05-07 11:29:00,74.2,52.7,30.05,SE,128,6.0,11.0,47,0.00,,,0.00,VWS V14.01,2013-05-07 16:29:00,
2013-05-07 11:34:00,74.4,52.9,30.06,ESE,104,7.0,11.0,47,0.00,,,0.00,VWS V14.01,2013-05-07 16:34:00,
2013-05-07 11:39:00,74.2,53.3,30.05,SE,146,2.0,10.0,48,0.00,,,0.00,VWS V14.01,2013-05-07 16:39:00,
2013-05-07 11:44:00,74.9,53.9,30.05,ESE,120,3.0,11.0,48,0.00,,,0.00,VWS V14.01,2013-05-07 16:44:00,
2013-05-07 11:49:00,75.0,52.8,30.05,ESE,123,5.0,12.0,46,0.00,,,0.00,VWS V14.01,2013-05-07 16:49:00,
2013-05-07 11:54:00,75.7,54.6,30.04,SSE,167,4.0,11.0,48,0.00,,,0.00,VWS V14.01,2013-05-07 16:54:00,
2013-05-07 11:59:00,76.0,53.2,30.04,ESE,111,2.0,9.0,45,0.00,,,0.00,VWS V14.01,2013-05-07 16:59:00,
2013-05-07 12:04:00,75.5,53.3,30.04,SSE,168,7.0,12.0,46,0.00,,,0.00,VWS V14.01,2013-05-07 17:04:00,
2013-05-07 12:09:00,76.0,53.2,30.04,ESE,113,5.0,10.0,45,0.00,,,0.00,VWS V14.01,2013-05-07 17:09:00,
2013-05-07 12:14:00,76.3,53.4,30.04,ESE,113,8.0,12.0,45,0.00,,,0.00,VWS V14.01,2013-05-07 17:14:00,
2013-05-07 12:19:00,76.5,53.6,30.04,South,181,5.0,12.0,45,0.00,,,0.00,VWS V14.01,2013-05-07 17:19:00,
2013-05-07 12:24:00,76.1,52.6,30.03,SE,139,2.0,8.0,44,0.00,,,0.00,VWS V14.01,2013-05-07 17:24:00,
2013-05-07 12:29:00,76.4,53.5,30.03,SSE,156,6.0,14.0,45,0.00,,,0.00,VWS V14.01,2013-05-07 17:29:00,
2013-05-07 12:34:00,76.6,54.3,30.03,ESE,119,7.0,9.0,46,0.00,,,0.00,VWS V14.01,2013-05-07 17:34:00,
2013-05-07 12:39:00,77.4,53.8,30.03,SE,135,7.0,12.0,44,0.00,,,0.00,VWS V14.01,2013-05-07 17:39:00,
2013-05-07 12:44:00,77.5,53.9,30.02,ESE,112,10.0,12.0,44,0.00,,,0.00,VWS V14.01,2013-05-07 17:44:00,
2013-05-07 12:49:00,77.8,52.2,30.02,East,95,6.0,13.0,41,0.00,,,0.00,VWS V14.01,2013-05-07 17:49:00,
2013-05-07 12:53:00,77.6,52.1,30.02,ESE,104,7.0,12.0,41,0.00,,,0.00,VWS V14.01,2013-05-07 17:53:00,
2013-05-07 12:58:00,78.1,51.8,30.01,SE,131,12.0,13.0,40,0.00,,,0.00,VWS V14.01,2013-05-07 17:58:00,
2013-05-07 13:03:00,78.3,51.3,30.01,SSE,154,6.0,14.0,39,0.00,,,0.00,VWS V14.01,2013-05-07 18:03:00,
2013-05-07 13:08:00,78.4,52.1,30.01,SSE,154,8.0,9.0,40,0.00,,,0.00,VWS V14.01,2013-05-07 18:08:00,
2013-05-07 13:13:00,78.9,51.9,30.00,South,175,4.0,12.0,39,0.00,,,0.00,VWS V14.01,2013-05-07 18:13:00,
2013-05-07 13:18:00,79.3,52.2,30.00,SSW,213,8.0,9.0,39,0.00,,,0.00,VWS V14.01,2013-05-07 18:18:00,
2013-05-07 13:23:00,79.9,52.0,30.00,ESE,120,4.0,15.0,38,0.00,,,0.00,VWS V14.01,2013-05-07 18:23:00,
2013-05-07 13:28:00,79.8,51.2,30.00,SE,136,12.0,16.0,37,0.00,,,0.00,VWS V14.01,2013-05-07 18:28:00,
2013-05-07 13:33:00,79.7,52.6,30.00,SSE,158,8.0,12.0,39,0.00,,,0.00,VWS V14.01,2013-05-07 18:33:00,
2013-05-07 13:38:00,80.3,50.9,29.99,ESE,118,9.0,18.0,36,0.00,,,0.00,VWS V14.01,2013-05-07 18:38:00,
2013-05-07 13:43:00,80.2,50.8,29.99,SSW,203,8.0,12.0,36,0.00,,,0.00,VWS V14.01,2013-05-07 18:43:00,
2013-05-07 13:48:00,80.6,52.0,29.99,SE,125,6.0,10.0,37,0.00,,,0.00,VWS V14.01,2013-05-07 18:48:00,
2013-05-07 13:53:00,81.3,51.8,29.99,SE,143,11.0,12.0,36,0.00,,,0.00,VWS V14.01,2013-05-07 18:53:00,
2013-05-07 13:58:00,81.4,51.9,29.99,SSE,151,11.0,16.0,36,0.00,,,0.00,VWS V14.01,2013-05-07 18:58:00,
2013-05-07 14:03:00,81.3,51.8,29.99,SSE,159,8.0,11.0,36,0.00,,,0.00,VWS V14.01,2013-05-07 19:03:00,
2013-05-07 14:08:00,80.9,52.2,29.98,South,175,6.0,9.0,37,0.00,,,0.00,VWS V14.01,2013-05-07 19:08:00,
2013-05-07 14:13:00,81.3,51.1,29.98,SSE,156,9.0,15.0,35,0.00,,,0.00,VWS V14.01,2013-05-07 19:13:00,
2013-05-07 14:18:00,81.3,49.5,29.98,South,180,5.0,11.0,33,0.00,,,0.00,VWS V14.01,2013-05-07 19:18:00,
2013-05-07 14:23:00,81.4,51.2,29.98,ESE,123,9.0,10.0,35,0.00,,,0.00,VWS V14.01,2013-05-07 19:23:00,
2013-05-07 14:28:00,81.8,53.0,29.98,ESE,123,10.0,13.0,37,0.00,,,0.00,VWS V14.01,2013-05-07 19:28:00,
2013-05-07 14:33:00,81.9,52.3,29.97,ESE,114,13.0,18.0,36,0.00,,,0.00,VWS V14.01,2013-05-07 19:33:00,
2013-05-07 14:38:00,81.9,52.3,29.97,SSE,157,12.0,13.0,36,0.00,,,0.00,VWS V14.01,2013-05-07 19:38:00,
2013-05-07 14:43:00,81.9,50.8,29.97,SE,130,5.0,14.0,34,0.00,,,0.00,VWS V14.01,2013-05-07 19:43:00,
2013-05-07 14:48:00,82.2,50.3,29.97,East,99,9.0,12.0,33,0.00,,,0.00,VWS V14.01,2013-05-07 19:48:00,
2013-05-07 14:53:00,82.4,50.4,29.97,ESE,112,8.0,13.0,33,0.00,,,0.00,VWS V14.01,2013-05-07 19:53:00,
2013-05-07 14:58:00,82.7,49.9,29.96,SE,146,7.0,15.0,32,0.00,,,0.00,VWS V14.01,2013-05-07 19:58:00,
2013-05-07 15:03:00,82.3,50.3,29.96,SSE,161,7.0,16.0,33,0.00,,,0.00,VWS V14.01,2013-05-07 20:03:00,
2013-05-07 15:08:00,82.9,50.0,29.96,SE,143,8.0,12.0,32,0.00,,,0.00,VWS V14.01,2013-05-07 20:08:00,
2013-05-07 15:13:00,82.9,50.9,29.96,SSE,152,9.0,14.0,33,0.00,,,0.00,VWS V14.01,2013-05-07 20:13:00,
2013-05-07 15:18:00,82.9,50.0,29.95,ESE,113,15.0,17.0,32,0.00,,,0.00,VWS V14.01,2013-05-07 20:18:00,
2013-05-07 15:23:00,83.1,50.2,29.95,ESE,104,10.0,13.0,32,0.00,,,0.00,VWS V14.01,2013-05-07 20:23:00,
2013-05-07 15:28:00,83.5,49.7,29.95,SSE,153,5.0,12.0,31,0.00,,,0.00,VWS V14.01,2013-05-07 20:28:00,
2013-05-07 15:33:00,83.3,50.4,29.94,South,182,10.0,10.0,32,0.00,,,0.00,VWS V14.01,2013-05-07 20:33:00,
2013-05-07 15:38:00,84.1,50.2,29.94,SSE,167,7.0,13.0,31,0.00,,,0.00,VWS V14.01,2013-05-07 20:38:00,
2013-05-07 15:43:00,84.0,50.2,29.94,SSW,203,5.0,13.0,31,0.00,,,0.00,VWS V14.01,2013-05-07 20:43:00,
2013-05-07 15:48:00,84.3,49.5,29.94,SE,139,14.0,14.0,30,0.00,,,0.00,VWS V14.01,2013-05-07 20:48:00,
2013-05-07 15:53:00,84.1,50.2,29.93,SSE,164,5.0,11.0,31,0.00,,,0.00,VWS V14.01,2013-05-07 20:53:00,
2013-05-07 15:58:00,84.0,50.2,29.93,SSE,159,4.0,10.0,31,0.00,,,0.00,VWS V14.01,2013-05-07 20:58:00,
2013-05-07 16:03:00,84.4,50.5,29.93,ESE,104,6.0,17.0,31,0.00,,,0.00,VWS V14.01,2013-05-07 21:03:00,
2013-05-07 16:08:00,83.9,50.1,29.93,SE,132,12.0,13.0,31,0.00,,,0.00,VWS V14.01,2013-05-07 21:08:00,
2013-05-07 16:13:00,84.2,49.4,29.93,SSW,210,6.0,11.0,30,0.00,,,0.00,VWS V14.01,2013-05-07 21:13:00,
2013-05-07 16:18:00,84.5,50.6,29.93,South,188,8.0,12.0,31,0.00,,,0.00,VWS V14.01,2013-05-07 21:18:00,
2013-05-07 16:23:00,84.0,48.4,29.93,SSE,156,4.0,12.0,29,0.00,,,0.00,VWS V14.01,2013-05-07 21:23:00,
2013-05-07 16:28:00,83.3,49.5,29.93,ESE,123,7.0,9.0,31,0.00,,,0.00,VWS V14.01,2013-05-07 21:28:00,
2013-05-07 16:33:00,82.9,49.2,29.92,SSW,194,2.0,8.0,31,0.00,,,0.00,VWS V14.01,2013-05-07 21:33:00,
2013-05-07 16:38:00,82.8,49.1,29.92,SE,134,6.0,8.0,31,0.00,,,0.00,VWS V14.01,2013-05-07 21:38:00,
2013-05-07 16:43:00,82.8,49.1,29.91,SE,133,11.0,12.0,31,0.00,,,0.00,VWS V14.01,2013-05-07 21:43:00,
2013-05-07 16:48:00,82.7,49.0,29.91,ESE,120,6.0,10.0,31,0.00,,,0.00,VWS V14.01,2013-05-07 21:48:00,
2013-05-07 16:53:00,83.1,50.2,29.90,SSE,147,9.0,12.0,32,0.00,,,0.00,VWS V14.01,2013-05-07 21:53:00,
2013-05-07 16:58:00,83.4,49.6,29.91,ESE,123,7.0,10.0,31,0.00,,,0.00,VWS V14.01,2013-05-07 21:58:00,
2013-05-07 17:03:00,84.5,49.7,29.91,SE,142,6.0,13.0,30,0.00,,,0.00,VWS V14.01,2013-05-07 22:03:00,
2013-05-07 17:08:00,83.9,50.1,29.91,SE,139,8.0,12.0,31,0.00,,,0.00,VWS V14.01,2013-05-07 22:08:00,
2013-05-07 17:13:00,83.0,50.1,29.91,SSW,196,7.0,11.0,32,0.00,,,0.00,VWS V14.01,2013-05-07 22:13:00,
2013-05-07 17:18:00,82.7,49.9,29.91,South,179,4.0,9.0,32,0.00,,,0.00,VWS V14.01,2013-05-07 22:18:00,
2013-05-07 17:23:00,82.7,49.9,29.91,SSE,164,9.0,12.0,32,0.00,,,0.00,VWS V14.01,2013-05-07 22:23:00,
2013-05-07 17:28:00,82.5,50.5,29.91,SSE,165,6.0,7.0,33,0.00,,,0.00,VWS V14.01,2013-05-07 22:28:00,
2013-05-07 17:33:00,82.5,49.7,29.91,East,101,5.0,10.0,32,0.00,,,0.00,VWS V14.01,2013-05-07 22:33:00,
2013-05-07 17:38:00,82.6,50.6,29.91,SSE,159,4.0,10.0,33,0.00,,,0.00,VWS V14.01,2013-05-07 22:38:00,
2013-05-07 17:43:00,82.5,50.5,29.90,SE,124,9.0,11.0,33,0.00,,,0.00,VWS V14.01,2013-05-07 22:43:00,
2013-05-07 17:48:00,82.6,50.6,29.90,ESE,118,6.0,9.0,33,0.00,,,0.00,VWS V14.01,2013-05-07 22:48:00,
2013-05-07 17:53:00,82.7,50.7,29.90,SE,146,3.0,6.0,33,0.00,,,0.00,VWS V14.01,2013-05-07 22:53:00,
2013-05-07 17:58:00,83.2,50.3,29.91,SSE,159,8.0,12.0,32,0.00,,,0.00,VWS V14.01,2013-05-07 22:58:00,
2013-05-07 18:03:00,83.6,49.8,29.90,SE,137,13.0,15.0,31,0.00,,,0.00,VWS V14.01,2013-05-07 23:03:00,
2013-05-07 18:08:00,83.7,50.7,29.90,SSE,166,5.0,9.0,32,0.00,,,0.00,VWS V14.01,2013-05-07 23:08:00,
2013-05-07 18:13:00,84.1,50.2,29.90,SE,128,10.0,12.0,31,0.00,,,0.00,VWS V14.01,2013-05-07 23:13:00,
2013-05-07 18:18:00,83.8,50.0,29.90,SE,126,7.0,9.0,31,0.00,,,0.00,VWS V14.01,2013-05-07 23:18:00,
2013-05-07 18:23:00,83.8,50.0,29.90,ESE,109,7.0,8.0,31,0.00,,,0.00,VWS V14.01,2013-05-07 23:23:00,
2013-05-07 18:28:00,83.7,49.9,29.90,ESE,117,3.0,7.0,31,0.00,,,0.00,VWS V14.01,2013-05-07 23:28:00,
2013-05-07 18:33:00,83.2,50.3,29.90,SE,130,6.0,7.0,32,0.00,,,0.00,VWS V14.01,2013-05-07 23:33:00,
2013-05-07 18:38:00,82.7,49.9,29.90,SSE,153,4.0,12.0,32,0.00,,,0.00,VWS V14.01,2013-05-07 23:38:00,
2013-05-07 18:43:00,82.3,50.3,29.90,SE,135,6.0,6.0,33,0.00,,,0.00,VWS V14.01,2013-05-07 23:43:00,
2013-05-07 18:48:00,82.0,50.1,29.90,SE,137,4.0,8.0,33,0.00,,,0.00,VWS V14.01,2013-05-07 23:48:00,
2013-05-07 18:53:00,81.7,49.8,29.89,SE,142,6.0,9.0,33,0.00,,,0.00,VWS V14.01,2013-05-07 23:53:00,
2013-05-07 18:58:00,81.6,50.5,29.90,SSE,158,1.0,5.0,34,0.00,,,0.00,VWS V14.01,2013-05-07 23:58:00,
2013-05-07 19:02:00,81.4,50.4,29.91,SSE,158,0.0,2.0,34,0.00,,,0.00,VWS V14.01,2013-05-08 00:02:00,
2013-05-07 19:07:00,81.4,50.4,29.92,SW,216,0.0,3.0,34,0.00,,,0.00,VWS V14.01,2013-05-08 00:07:00,
2013-05-07 19:12:00,81.2,50.2,29.92,South,191,0.0,3.0,34,0.00,,,0.00,VWS V14.01,2013-05-08 00:12:00,
2013-05-07 19:17:00,81.1,49.3,29.92,SSW,194,0.0,1.0,33,0.00,,,0.00,VWS V14.01,2013-05-08 00:17:00,
2013-05-07 19:22:00,80.8,49.0,29.92,SSW,192,0.0,0.0,33,0.00,,,0.00,VWS V14.01,2013-05-08 00:22:00,
2013-05-07 19:27:00,80.4,48.7,29.92,SSW,192,0.0,0.0,33,0.00,,,0.00,VWS V14.01,2013-05-08 00:27:00,
2013-05-07 19:32:00,79.9,47.4,29.92,SSW,192,0.0,0.0,32,0.00,,,0.00,VWS V14.01,2013-05-08 00:32:00,
2013-05-07 19:37:00,80.0,49.1,29.92,NE,46,2.0,3.0,34,0.00,,,0.00,VWS V14.01,2013-05-08 00:37:00,
2013-05-07 19:42:00,79.7,48.9,29.90,East,94,5.0,6.0,34,0.00,,,0.00,VWS V14.01,2013-05-08 00:42:00,
2013-05-07 19:47:00,79.8,48.2,29.87,ESE,109,7.0,10.0,33,0.00,,,0.00,VWS V14.01,2013-05-08 00:47:00,
2013-05-07 19:52:00,79.9,49.0,29.88,SE,140,4.0,9.0,34,0.00,,,0.00,VWS V14.01,2013-05-08 00:52:00,
2013-05-07 19:57:00,79.3,49.3,29.88,SE,134,9.0,9.0,35,0.00,,,0.00,VWS V14.01,2013-05-08 00:57:00,
2013-05-07 20:02:00,79.2,50.0,29.88,SSE,161,5.0,9.0,36,0.00,,,0.00,VWS V14.01,2013-05-08 01:02:00,
2013-05-07 20:07:00,79.2,50.0,29.88,SSE,152,5.0,10.0,36,0.00,,,0.00,VWS V14.01,2013-05-08 01:07:00,
2013-05-07 20:12:00,79.2,50.0,29.88,SE,137,5.0,10.0,36,0.00,,,0.00,VWS V14.01,2013-05-08 01:12:00,
2013-05-07 20:17:00,79.0,50.5,29.88,SSE,150,9.0,13.0,37,0.00,,,0.00,VWS V14.01,2013-05-08 01:17:00,
2013-05-07 20:22:00,79.0,49.8,29.88,SSE,149,8.0,11.0,36,0.00,,,0.00,VWS V14.01,2013-05-08 01:22:00,
2013-05-07 20:27:00,79.0,49.8,29.88,SE,140,7.0,14.0,36,0.00,,,0.00,VWS V14.01,2013-05-08 01:27:00,
2013-05-07 20:32:00,78.9,49.7,29.89,South,172,6.0,8.0,36,0.00,,,0.00,VWS V14.01,2013-05-08 01:32:00,
2013-05-07 20:37:00,78.9,49.7,29.90,SE,125,6.0,13.0,36,0.00,,,0.00,VWS V14.01,2013-05-08 01:37:00,
2013-05-07 20:42:00,78.8,49.6,29.90,East,100,4.0,11.0,36,0.00,,,0.00,VWS V14.01,2013-05-08 01:42:00,
2013-05-07 20:47:00,78.4,49.3,29.90,ESE,115,3.0,8.0,36,0.00,,,0.00,VWS V14.01,2013-05-08 01:47:00,
2013-05-07 20:52:00,78.2,49.8,29.90,SSE,156,5.0,8.0,37,0.00,,,0.00,VWS V14.01,2013-05-08 01:52:00,
2013-05-07 20:57:00,77.9,49.6,29.90,SE,142,4.0,7.0,37,0.00,,,0.00,VWS V14.01,2013-05-08 01:57:00,
2013-05-07 21:02:00,77.5,49.9,29.90,SE,146,7.0,8.0,38,0.00,,,0.00,VWS V14.01,2013-05-08 02:02:00,
2013-05-07 21:07:00,77.2,49.7,29.90,SE,144,9.0,10.0,38,0.00,,,0.00,VWS V14.01,2013-05-08 02:07:00,
2013-05-07 21:12:00,77.1,50.3,29.90,SE,140,6.0,10.0,39,0.00,,,0.00,VWS V14.01,2013-05-08 02:12:00,
2013-05-07 21:17:00,76.9,50.1,29.91,SSE,156,4.0,6.0,39,0.00,,,0.00,VWS V14.01,2013-05-08 02:17:00,
2013-05-07 21:22:00,76.6,50.5,29.91,ESE,111,4.0,7.0,40,0.00,,,0.00,VWS V14.01,2013-05-08 02:22:00,
2013-05-07 21:27:00,75.8,50.5,29.91,ESE,104,5.0,5.0,41,0.00,,,0.00,VWS V14.01,2013-05-08 02:27:00,
2013-05-07 21:32:00,75.2,49.9,29.91,SE,130,3.0,6.0,41,0.00,,,0.00,VWS V14.01,2013-05-08 02:32:00,
2013-05-07 21:37:00,75.0,50.4,29.92,SE,135,2.0,4.0,42,0.00,,,0.00,VWS V14.01,2013-05-08 02:37:00,
2013-05-07 21:42:00,74.9,50.3,29.92,ESE,118,1.0,4.0,42,0.00,,,0.00,VWS V14.01,2013-05-08 02:42:00,
2013-05-07 21:47:00,74.6,50.0,29.92,SE,128,4.0,5.0,42,0.00,,,0.00,VWS V14.01,2013-05-08 02:47:00,
2013-05-07 21:52:00,74.3,50.4,29.92,ESE,114,2.0,4.0,43,0.00,,,0.00,VWS V14.01,2013-05-08 02:52:00,
2013-05-07 21:57:00,73.7,50.5,29.92,East,87,3.0,4.0,44,0.00,,,0.00,VWS V14.01,2013-05-08 02:57:00,
2013-05-07 22:02:00,73.4,50.2,29.92,East,81,4.0,4.0,44,0.00,,,0.00,VWS V14.01,2013-05-08 03:02:00,
2013-05-07 22:07:00,73.1,50.5,29.92,ENE,74,2.0,3.0,45,0.00,,,0.00,VWS V14.01,2013-05-08 03:07:00,
2013-05-07 22:12:00,72.7,50.8,29.93,East,98,3.0,4.0,46,0.00,,,0.00,VWS V14.01,2013-05-08 03:12:00,
2013-05-07 22:17:00,72.3,50.4,29.92,East,91,2.0,3.0,46,0.00,,,0.00,VWS V14.01,2013-05-08 03:17:00,
2013-05-07 22:22:00,72.4,50.5,29.93,ESE,116,5.0,6.0,46,0.00,,,0.00,VWS V14.01,2013-05-08 03:22:00,
2013-05-07 22:27:00,72.7,51.3,29.93,ESE,122,3.0,5.0,47,0.00,,,0.00,VWS V14.01,2013-05-08 03:27:00,
2013-05-07 22:32:00,72.3,51.0,29.93,SE,135,3.0,4.0,47,0.00,,,0.00,VWS V14.01,2013-05-08 03:32:00,
2013-05-07 22:37:00,72.4,51.0,29.93,SE,128,4.0,6.0,47,0.00,,,0.00,VWS V14.01,2013-05-08 03:37:00,
2013-05-07 22:42:00,72.5,51.2,29.93,SSE,147,3.0,7.0,47,0.00,,,0.00,VWS V14.01,2013-05-08 03:42:00,
2013-05-07 22:47:00,72.9,50.9,29.93,SE,133,3.0,6.0,46,0.00,,,0.00,VWS V14.01,2013-05-08 03:47:00,
2013-05-07 22:52:00,73.0,51.0,29.93,SE,125,6.0,6.0,46,0.00,,,0.00,VWS V14.01,2013-05-08 03:52:00,
2013-05-07 22:57:00,72.9,51.5,29.94,SSE,157,5.0,7.0,47,0.00,,,0.00,VWS V14.01,2013-05-08 03:57:00,
2013-05-07 23:01:00,72.8,51.4,29.94,SE,142,4.0,5.0,47,0.00,,,0.00,VWS V14.01,2013-05-08 04:01:00,
2013-05-07 23:06:00,72.7,51.3,29.93,South,170,3.0,6.0,47,0.00,,,0.00,VWS V14.01,2013-05-08 04:06:00,
2013-05-07 23:11:00,72.6,51.2,29.94,ESE,122,3.0,6.0,47,0.00,,,0.00,VWS V14.01,2013-05-08 04:11:00,
2013-05-07 23:16:00,72.2,51.4,29.94,SE,133,4.0,4.0,48,0.00,,,0.00,VWS V14.01,2013-05-08 04:16:00,
2013-05-07 23:21:00,72.0,51.3,29.94,SE,143,4.0,5.0,48,0.00,,,0.00,VWS V14.01,2013-05-08 04:21:00,
2013-05-07 23:26:00,71.8,51.6,29.94,ESE,123,4.0,4.0,49,0.00,,,0.00,VWS V14.01,2013-05-08 04:26:00,
2013-05-07 23:31:00,71.6,51.5,29.94,ESE,119,3.0,4.0,49,0.00,,,0.00,VWS V14.01,2013-05-08 04:31:00,
2013-05-07 23:36:00,71.1,51.5,29.94,ESE,105,4.0,4.0,50,0.00,,,0.00,VWS V14.01,2013-05-08 04:36:00,
2013-05-07 23:41:00,70.5,51.5,29.95,ESE,113,4.0,4.0,51,0.00,,,0.00,VWS V14.01,2013-05-08 04:41:00,
2013-05-07 23:46:00,70.1,51.7,29.94,ESE,112,4.0,4.0,52,0.00,,,0.00,VWS V14.01,2013-05-08 04:46:00,
2013-05-07 23:51:00,69.7,51.8,29.94,ESE,119,3.0,4.0,53,0.00,,,0.00,VWS V14.01,2013-05-08 04:51:00,
2013-05-07 23:56:00,69.9,52.0,29.94,SE,137,3.0,3.0,53,0.00,,,0.00,VWS V14.01,2013-05-08 04:56:00,